Карточка аэропорта UMMS

Внимание!
Информация на этой странице в стадии наполнения.
Если вы не увидели какой-то информации, или заметили неточность - пожалуйста сообщите нам!
Спасибо!
Команда RU-STAFF
Название аэропортаMinsk 2
Название аэропорта (англ.)Minsk 2
Превышение681 ft. (207.6 m.)
Координаты53°52.95', 28°1.848'
Высота перехода6000 ft
Эшелон переходаQNH>=733mm:FL80; QNH<733mm:FL90
Коды ответчика0020−0027; 6230-6277
Зона ОрВДМинск РПИ (UMMV)
Данные METARUMMS 190130Z 05005G08MPS 020V090 3500 -RA BR SCT005 OVC014 07/06 Q1005 R13L/290060 R13R/////// NOSIG RMK QBB160
Проноз погоды (TAF)UMMS 182303Z 1900/1924 04006G11MPS 3000 -RA BR OVC004 TEMPO 1900/1907 06011G16MPS 0500 +SHRA OVC003 BKN015CB TEMPO 1907/1924 08009G14MPS 1200 SHRA OVC003 BKN025CB
NOTAMshow/hide NOTAM
AWOS   TABLE

Информация о ВПП

ВПП Длина ВПП (м.) Покрытие Курс ВПП Частота ILS
13L3700Цементобетон130110.7
13R3641Цементобетон130108.9
31L3641Цементобетон310109.7
31R3700Цементобетон310110.1

Диспетчерские позиции

Позывной Наименование органа УВД Частота
UMMS_APPMinsk Approach125.900
UMMS_R_APPMinsk Radar125.250
UMMS_TWRMinsk Tower118.300
UMMS_GNDMinsk Ground129.950



Спутниковое изображение